createdAt,value
2022-10-25T00:01:51.304Z,100719.91
2022-10-25T00:04:18.358Z,100722.94
2022-10-25T00:06:45.176Z,100725.19
2022-10-25T00:09:11.885Z,100731.25
2022-10-25T00:11:38.532Z,100724.59
2022-10-25T00:14:07.665Z,100724.59
2022-10-25T00:16:37.435Z,100724.25
2022-10-25T00:19:05.172Z,100720.09
2022-10-25T00:21:32.297Z,100722.56
2022-10-25T00:23:59.153Z,100718.59
2022-10-25T00:26:25.871Z,100718.50
2022-10-25T00:28:54.410Z,100719.31
2022-10-25T00:31:23.185Z,100715.81
2022-10-25T00:33:49.918Z,100710.97
2022-10-25T00:36:18.432Z,100712.28
2022-10-25T00:38:46.180Z,100713.66
2022-10-25T00:41:14.932Z,100712.00
2022-10-25T00:43:53.524Z,100723.03
2022-10-25T00:46:23.431Z,100729.91
2022-10-25T00:48:59.379Z,100727.78
2022-10-25T00:51:32.446Z,100730.81
2022-10-25T00:53:59.300Z,100732.44
2022-10-25T00:56:30.061Z,100733.13
2022-10-25T00:59:02.078Z,100738.16
2022-10-25T01:01:29.286Z,100737.50
2022-10-25T01:04:00.111Z,100722.66
2022-10-25T01:06:53.725Z,100722.25
2022-10-25T01:09:23.948Z,100716.72
2022-10-25T01:11:50.799Z,100722.75
2022-10-25T01:14:18.366Z,100729.44
2022-10-25T01:17:07.378Z,100721.13
2022-10-25T01:19:52.224Z,100720.81
2022-10-25T01:22:36.797Z,100716.19
2022-10-25T01:25:50.978Z,100723.91
2022-10-25T01:28:51.858Z,100727.13
2022-10-25T01:31:46.741Z,100726.50
2022-10-25T01:34:37.872Z,100727.66
2022-10-25T01:37:13.960Z,100715.31
2022-10-25T01:39:45.603Z,100705.31
2022-10-25T01:42:35.641Z,100705.25
2022-10-25T01:45:24.515Z,100706.28
2022-10-25T01:47:59.518Z,100709.59
2022-10-25T01:50:29.845Z,100709.75
2022-10-25T01:52:58.181Z,100702.09
2022-10-25T01:55:34.822Z,100707.91
2022-10-25T01:58:17.085Z,100698.72
2022-10-25T02:01:26.004Z,100708.59
2022-10-25T02:04:43.824Z,100708.94
2022-10-25T02:07:22.084Z,100712.63
2022-10-25T02:10:12.155Z,100714.28
2022-10-25T02:12:54.631Z,100717.97
2022-10-25T02:15:36.237Z,100716.47
2022-10-25T02:18:14.814Z,100714.84
2022-10-25T02:20:46.996Z,100728.19
2022-10-25T02:23:18.771Z,100719.84
2022-10-25T02:25:49.931Z,100718.00
2022-10-25T02:28:32.177Z,100723.34
2022-10-25T02:31:01.652Z,100711.66
2022-10-25T02:33:37.541Z,100707.81
2022-10-25T02:36:26.002Z,100706.47
2022-10-25T02:38:59.691Z,100712.00
2022-10-25T02:41:28.773Z,100701.66
2022-10-25T02:43:55.566Z,100706.53
2022-10-25T02:46:23.592Z,100698.38
2022-10-25T02:48:51.429Z,100708.25
2022-10-25T02:51:19.370Z,100707.28
2022-10-25T02:53:46.577Z,100704.59
2022-10-25T02:56:21.952Z,100699.75
2022-10-25T02:58:50.941Z,100688.44
2022-10-25T03:01:20.068Z,100698.13
2022-10-25T03:03:47.404Z,100698.78
2022-10-25T03:06:14.857Z,100692.44
2022-10-25T03:08:42.550Z,100689.44
2022-10-25T03:11:10.620Z,100688.09
2022-10-25T03:13:37.754Z,100691.78
2022-10-25T03:16:04.765Z,100707.97
2022-10-25T03:18:31.861Z,100723.47
2022-10-25T03:21:00.532Z,100723.13
2022-10-25T03:23:27.750Z,100723.97
2022-10-25T03:25:56.138Z,100726.63
2022-10-25T03:28:23.381Z,100731.63
2022-10-25T03:30:50.246Z,100730.13
2022-10-25T03:33:17.135Z,100719.97
2022-10-25T03:35:43.932Z,100723.63
2022-10-25T03:38:10.665Z,100736.28
2022-10-25T03:40:37.476Z,100736.44
2022-10-25T03:43:04.134Z,100744.09
2022-10-25T03:45:30.762Z,100745.09
2022-10-25T03:47:57.430Z,100741.09
2022-10-25T03:50:24.153Z,100734.41
2022-10-25T03:52:50.782Z,100727.91
2022-10-25T03:55:17.491Z,100724.59
2022-10-25T03:57:44.361Z,100731.25
2022-10-25T04:00:11.764Z,100727.75
2022-10-25T04:02:38.762Z,100723.56
2022-10-25T04:05:05.801Z,100715.72
2022-10-25T04:07:32.487Z,100717.06
2022-10-25T04:09:59.192Z,100715.56
2022-10-25T04:12:25.967Z,100711.38
2022-10-25T04:14:52.634Z,100713.75
2022-10-25T04:17:19.245Z,100709.41
2022-10-25T04:19:45.855Z,100699.25
2022-10-25T04:22:13.209Z,100704.91
2022-10-25T04:24:39.826Z,100708.09
2022-10-25T04:27:06.597Z,100720.44
2022-10-25T04:29:33.318Z,100707.28
2022-10-25T04:32:00.103Z,100714.13
2022-10-25T04:34:26.739Z,100717.94
2022-10-25T04:36:53.429Z,100723.09
2022-10-25T04:39:20.039Z,100723.09
2022-10-25T04:41:46.796Z,100726.94
2022-10-25T04:44:13.499Z,100719.09
2022-10-25T04:46:40.277Z,100725.25
2022-10-25T04:49:07.601Z,100733.09
2022-10-25T04:51:34.417Z,100736.09
2022-10-25T04:54:01.052Z,100739.94
2022-10-25T04:56:28.902Z,100744.44
2022-10-25T04:58:55.964Z,100744.78
2022-10-25T05:01:22.718Z,100735.13
2022-10-25T05:03:49.861Z,100734.94
2022-10-25T05:06:22.570Z,100735.94
2022-10-25T05:08:50.659Z,100733.94
2022-10-25T05:11:19.824Z,100732.28
2022-10-25T05:13:47.134Z,100736.28
2022-10-25T05:16:22.077Z,100745.78
2022-10-25T05:18:54.527Z,100743.63
2022-10-25T05:21:23.290Z,100748.28
2022-10-25T05:23:50.005Z,100749.44
2022-10-25T05:26:19.720Z,100764.13
2022-10-25T05:28:49.008Z,100773.13
2022-10-25T05:31:15.907Z,100773.97
2022-10-25T05:33:46.243Z,100775.13
2022-10-25T05:36:14.150Z,100789.78
2022-10-25T05:38:41.465Z,100799.94
2022-10-25T05:41:10.382Z,100805.13
2022-10-25T05:43:37.202Z,100809.28
2022-10-25T05:46:07.532Z,100794.63
2022-10-25T05:48:36.308Z,100792.63
2022-10-25T05:51:28.794Z,100787.31
2022-10-25T05:54:00.497Z,100787.47
2022-10-25T05:56:29.327Z,100780.28
2022-10-25T05:58:58.741Z,100778.13
2022-10-25T06:01:26.853Z,100775.59
2022-10-25T06:03:55.493Z,100774.28
2022-10-25T06:06:23.266Z,100779.47
2022-10-25T06:08:50.407Z,100785.44
2022-10-25T06:11:19.703Z,100783.44
2022-10-25T06:13:46.767Z,100784.63
2022-10-25T06:16:15.969Z,100787.31
2022-10-25T06:18:43.281Z,100798.28
2022-10-25T06:21:12.980Z,100806.28
2022-10-25T06:23:40.600Z,100807.31
2022-10-25T06:26:10.072Z,100816.66
2022-10-25T06:28:37.715Z,100815.63
2022-10-25T06:31:07.293Z,100822.28
2022-10-25T06:33:34.565Z,100814.63
2022-10-25T06:36:03.101Z,100811.78
2022-10-25T06:38:30.704Z,100816.94
2022-10-25T06:41:05.349Z,100816.94
2022-10-25T06:43:34.807Z,100818.44
2022-10-25T06:46:20.952Z,100818.81
2022-10-25T06:48:48.023Z,100816.97
2022-10-25T06:51:14.704Z,100818.97
2022-10-25T06:53:41.395Z,100818.13
2022-10-25T06:56:14.235Z,100805.75
2022-10-25T06:58:41.972Z,100816.28
2022-10-25T07:01:12.013Z,100811.59
2022-10-25T07:03:39.026Z,100815.09
2022-10-25T07:06:13.388Z,100822.44
2022-10-25T07:08:42.146Z,100826.81
2022-10-25T07:11:15.100Z,100827.78
2022-10-25T07:13:41.989Z,100819.78
2022-10-25T07:16:10.577Z,100827.25
2022-10-25T07:18:37.696Z,100828.94
2022-10-25T07:21:07.339Z,100839.63
2022-10-25T07:23:34.650Z,100840.63
2022-10-25T07:26:01.250Z,100849.63
2022-10-25T07:28:27.930Z,100844.44
2022-10-25T07:30:54.555Z,100848.81
2022-10-25T07:33:21.193Z,100865.34
2022-10-25T07:36:05.967Z,100875.84
2022-10-25T07:38:36.446Z,100868.66
2022-10-25T07:41:03.836Z,100860.81
2022-10-25T07:43:30.630Z,100860.81
2022-10-25T07:45:57.756Z,100857.63
2022-10-25T07:48:24.833Z,100851.47
2022-10-25T07:50:51.692Z,100852.63
2022-10-25T07:53:18.779Z,100850.47
2022-10-25T07:55:52.400Z,100849.13
2022-10-25T07:58:19.484Z,100842.28
2022-10-25T08:00:46.941Z,100842.28
2022-10-25T08:03:15.525Z,100843.94
2022-10-25T08:05:46.759Z,100848.13
2022-10-25T08:08:14.613Z,100853.31
2022-10-25T08:10:43.525Z,100858.97
2022-10-25T08:13:10.562Z,100853.63
2022-10-25T08:15:37.527Z,100862.50
2022-10-25T08:18:04.856Z,100865.16
2022-10-25T08:20:56.842Z,100874.66
2022-10-25T08:23:18.453Z,100879.16
2022-10-25T08:25:45.168Z,100876.84
2022-10-25T08:28:12.214Z,100884.00
2022-10-25T08:30:40.303Z,100877.19
2022-10-25T08:33:11.195Z,100877.81
2022-10-25T08:35:38.552Z,100878.81
2022-10-25T08:38:05.936Z,100888.16
2022-10-25T08:40:58.512Z,100895.16
2022-10-25T08:43:37.018Z,100900.50
2022-10-25T08:46:11.461Z,100900.84
2022-10-25T08:48:43.897Z,100899.63
2022-10-25T08:51:29.859Z,100903.28
2022-10-25T08:54:03.217Z,100902.25
2022-10-25T08:56:30.439Z,100909.59
2022-10-25T08:59:01.365Z,100917.09
2022-10-25T09:01:44.930Z,100918.09
2022-10-25T09:04:11.655Z,100930.56
2022-10-25T09:06:43.596Z,100925.66
2022-10-25T09:09:25.339Z,100934.03
2022-10-25T09:12:35.441Z,100932.34
2022-10-25T09:15:19.886Z,100918.47
2022-10-25T09:17:51.775Z,100920.09
2022-10-25T09:20:28.865Z,100920.09
2022-10-25T09:23:15.974Z,100923.44
2022-10-25T09:26:03.394Z,100926.22
2022-10-25T09:29:09.082Z,100936.06
2022-10-25T09:31:48.131Z,100946.56
2022-10-25T09:34:17.149Z,100946.56
2022-10-25T09:36:47.698Z,100938.06
2022-10-25T09:39:23.115Z,100936.25
2022-10-25T09:41:57.156Z,100917.50
2022-10-25T09:44:34.413Z,100915.19
2022-10-25T09:47:26.033Z,100920.53
2022-10-25T09:50:11.698Z,100919.34
2022-10-25T09:55:29.351Z,100940.22
2022-10-25T09:57:56.464Z,100941.59
2022-10-25T10:00:23.156Z,100930.53
2022-10-25T10:02:49.940Z,100930.09
2022-10-25T10:05:19.545Z,100934.75
2022-10-25T10:07:48.220Z,100929.16
2022-10-25T10:10:35.618Z,100926.53
2022-10-25T10:13:29.031Z,100928.25
2022-10-25T10:15:57.642Z,100924.53
2022-10-25T10:18:34.617Z,100917.56
2022-10-25T10:21:23.100Z,100915.50
2022-10-25T10:23:53.855Z,100919.75
2022-10-25T10:26:31.310Z,100916.44
2022-10-25T10:29:24.958Z,100928.25
2022-10-25T10:31:55.192Z,100920.69
2022-10-25T10:34:43.198Z,100924.09
2022-10-25T10:37:17.462Z,100928.75
2022-10-25T10:39:58.950Z,100936.75
2022-10-25T10:45:10.535Z,100928.69
2022-10-25T10:47:56.142Z,100934.75
2022-10-25T10:50:22.911Z,100931.28
2022-10-25T10:52:59.405Z,100930.25
2022-10-25T10:55:36.250Z,100919.44
2022-10-25T10:58:06.777Z,100921.69
2022-10-25T11:00:34.621Z,100903.00
2022-10-25T11:03:01.389Z,100914.97
2022-10-25T11:05:37.431Z,100918.28
2022-10-25T11:08:07.577Z,100911.00
2022-10-25T11:10:38.667Z,100913.44
2022-10-25T11:13:16.670Z,100918.09
2022-10-25T11:16:23.136Z,100921.22
2022-10-25T11:18:55.518Z,100924.50
2022-10-25T11:21:38.195Z,100931.81
2022-10-25T11:24:17.047Z,100930.84
2022-10-25T11:26:58.967Z,100942.81
2022-10-25T11:29:46.704Z,100932.19
2022-10-25T11:32:47.554Z,100929.69
2022-10-25T11:35:29.157Z,100933.44
2022-10-25T11:38:12.956Z,100936.44
2022-10-25T11:41:06.676Z,100924.00
2022-10-25T11:43:48.576Z,100914.84
2022-10-25T11:46:21.313Z,100919.75
2022-10-25T11:49:15.915Z,100918.66
2022-10-25T11:52:02.551Z,100912.28
2022-10-25T11:54:31.935Z,100908.88
2022-10-25T11:57:29.104Z,100911.16
2022-10-25T12:00:51.278Z,100909.09
2022-10-25T12:03:33.248Z,100901.34
2022-10-25T12:06:30.592Z,100904.22
2022-10-25T12:09:21.787Z,100899.38
2022-10-25T12:11:57.474Z,100904.53
2022-10-25T12:14:37.574Z,100899.50
2022-10-25T12:17:07.692Z,100899.09
2022-10-25T12:19:48.182Z,100901.91
2022-10-25T12:22:26.792Z,100906.53
2022-10-25T12:25:01.629Z,100905.91
2022-10-25T12:27:29.939Z,100904.34
2022-10-25T12:30:07.563Z,100897.25
2022-10-25T12:32:41.640Z,100900.91
2022-10-25T12:35:27.156Z,100897.72
2022-10-25T12:37:58.812Z,100900.00
2022-10-25T12:40:28.830Z,100901.63
2022-10-25T12:43:02.005Z,100898.72
2022-10-25T12:45:41.042Z,100894.16
2022-10-25T12:48:56.275Z,100893.81
2022-10-25T12:51:46.244Z,100900.13
2022-10-25T12:54:54.569Z,100897.03
2022-10-25T12:57:33.715Z,100889.59
2022-10-25T13:00:12.727Z,100882.28
2022-10-25T13:03:18.543Z,100883.09
2022-10-25T13:05:49.263Z,100893.38
2022-10-25T13:08:22.325Z,100889.22
2022-10-25T13:10:57.672Z,100888.81
2022-10-25T13:13:30.761Z,100873.41
2022-10-25T13:16:05.535Z,100879.44
2022-10-25T13:18:32.550Z,100881.63
2022-10-25T13:21:01.560Z,100877.56
2022-10-25T13:23:43.618Z,100884.88
2022-10-25T13:26:16.925Z,100876.97
2022-10-25T13:28:45.116Z,100877.31
2022-10-25T13:31:33.647Z,100878.88
2022-10-25T13:34:34.705Z,100878.13
2022-10-25T13:37:03.884Z,100880.22
2022-10-25T13:39:38.796Z,100876.34
2022-10-25T13:42:10.937Z,100875.94
2022-10-25T13:44:49.233Z,100875.53
2022-10-25T13:47:52.669Z,100877.00
2022-10-25T13:50:41.477Z,100874.31
2022-10-25T13:53:26.529Z,100880.34
2022-10-25T13:55:59.746Z,100881.59
2022-10-25T13:58:32.110Z,100879.53
2022-10-25T14:01:17.945Z,100882.63
2022-10-25T14:04:02.776Z,100879.94
2022-10-25T14:06:30.800Z,100891.53
2022-10-25T14:09:09.799Z,100889.22
2022-10-25T14:11:51.522Z,100893.16
2022-10-25T14:14:31.413Z,100889.88
2022-10-25T14:17:06.990Z,100890.69
2022-10-25T14:19:59.679Z,100882.19
2022-10-25T14:22:35.578Z,100885.31
2022-10-25T14:25:33.145Z,100883.69
2022-10-25T14:28:17.491Z,100877.00
2022-10-25T14:30:47.376Z,100879.47
2022-10-25T14:33:29.318Z,100874.88
2022-10-25T14:36:04.896Z,100870.34
2022-10-25T14:38:33.333Z,100874.06
2022-10-25T14:41:02.571Z,100866.59
2022-10-25T14:43:35.042Z,100874.63
2022-10-25T14:46:14.918Z,100869.00
2022-10-25T14:48:45.316Z,100865.84
2022-10-25T14:51:22.074Z,100861.47
2022-10-25T14:53:55.795Z,100867.63
2022-10-25T14:56:26.901Z,100859.97
2022-10-25T14:58:54.509Z,100864.94
2022-10-25T15:01:22.946Z,100866.56
2022-10-25T15:03:54.473Z,100867.94
2022-10-25T15:06:24.115Z,100865.97
2022-10-25T15:09:10.181Z,100864.94
2022-10-25T15:12:03.612Z,100872.31
2022-10-25T15:14:31.341Z,100870.81
2022-10-25T15:17:03.212Z,100869.72
2022-10-25T15:19:29.937Z,100867.97
2022-10-25T15:22:07.390Z,100869.97
2022-10-25T15:24:44.633Z,100860.13
2022-10-25T15:27:26.005Z,100865.44
2022-10-25T15:29:52.798Z,100865.22
2022-10-25T15:32:27.646Z,100869.03
2022-10-25T15:34:58.623Z,100870.81
2022-10-25T15:37:26.774Z,100878.41
2022-10-25T15:39:54.906Z,100876.50
2022-10-25T15:42:24.119Z,100880.97
2022-10-25T15:44:50.839Z,100881.50
2022-10-25T15:47:28.856Z,100878.50
2022-10-25T15:49:56.274Z,100877.03
2022-10-25T15:52:23.564Z,100885.63
2022-10-25T15:54:50.409Z,100881.84
2022-10-25T15:57:17.662Z,100889.06
2022-10-25T15:59:44.829Z,100888.13
2022-10-25T16:02:19.214Z,100893.88
2022-10-25T16:04:46.388Z,100895.66
2022-10-25T16:07:14.219Z,100895.56
2022-10-25T16:09:41.075Z,100897.00
2022-10-25T16:12:10.617Z,100896.56
2022-10-25T16:14:37.655Z,100900.88
2022-10-25T16:17:04.449Z,100898.38
2022-10-25T16:19:31.751Z,100892.84
2022-10-25T16:21:59.452Z,100896.78
2022-10-25T16:24:26.041Z,100904.53
2022-10-25T16:26:52.901Z,100903.31
2022-10-25T16:29:24.739Z,100905.72
2022-10-25T16:31:52.732Z,100902.75
2022-10-25T16:34:19.920Z,100902.25
2022-10-25T16:36:47.838Z,100912.13
2022-10-25T16:39:14.973Z,100913.16
2022-10-25T16:41:46.269Z,100910.72
2022-10-25T16:44:15.598Z,100916.25
2022-10-25T16:46:42.677Z,100919.47
2022-10-25T16:49:09.626Z,100921.97
2022-10-25T16:51:37.138Z,100925.88
2022-10-25T16:54:04.352Z,100919.75
2022-10-25T16:56:31.373Z,100929.38
2022-10-25T16:58:58.007Z,100927.84
2022-10-25T17:01:29.301Z,100932.38
2022-10-25T17:03:56.076Z,100924.69
2022-10-25T17:06:40.189Z,100929.63
2022-10-25T17:09:08.259Z,100936.00
2022-10-25T17:11:34.945Z,100943.19
2022-10-25T17:14:01.773Z,100942.88
2022-10-25T17:16:28.434Z,100950.44
2022-10-25T17:18:55.104Z,100946.09
2022-10-25T17:21:22.258Z,100951.78
2022-10-25T17:23:49.195Z,100958.84
2022-10-25T17:26:16.037Z,100964.22
2022-10-25T17:28:44.267Z,100966.03
2022-10-25T17:31:15.121Z,100964.88
2022-10-25T17:33:49.146Z,100971.75
2022-10-25T17:36:18.693Z,100968.91
2022-10-25T17:38:54.847Z,100972.63
2022-10-25T17:41:25.733Z,100966.78
2022-10-25T17:43:57.106Z,100962.78
2022-10-25T17:46:30.196Z,100962.66
2022-10-25T17:49:04.259Z,100964.63
2022-10-25T17:51:34.762Z,100965.50
2022-10-25T17:54:05.942Z,100970.28
2022-10-25T17:56:34.577Z,100966.09
2022-10-25T17:59:05.693Z,100970.97
2022-10-25T18:01:38.481Z,100962.81
2022-10-25T18:04:07.391Z,100966.31
2022-10-25T18:06:35.341Z,100974.31
2022-10-25T18:09:09.905Z,100971.31
2022-10-25T18:11:38.808Z,100972.00
2022-10-25T18:14:06.808Z,100968.00
2022-10-25T18:16:39.095Z,100965.16
2022-10-25T18:19:09.199Z,100958.59
2022-10-25T18:21:37.374Z,100956.09
2022-10-25T18:24:07.846Z,100948.63
2022-10-25T18:26:36.128Z,100953.13
2022-10-25T18:29:04.089Z,100956.97
2022-10-25T18:31:31.705Z,100949.47
2022-10-25T18:34:06.425Z,100957.63
2022-10-25T18:36:33.432Z,100954.81
2022-10-25T18:39:04.212Z,100956.25
2022-10-25T18:41:36.578Z,100962.09
2022-10-25T18:44:04.521Z,100962.78
2022-10-25T18:46:33.019Z,100962.59
2022-10-25T18:49:01.369Z,100965.25
2022-10-25T18:51:30.013Z,100968.09
2022-10-25T18:53:59.167Z,100962.56
2022-10-25T18:56:27.457Z,100965.41
2022-10-25T18:58:57.024Z,100962.38
2022-10-25T19:01:26.053Z,100968.03
2022-10-25T19:03:56.819Z,100966.69
2022-10-25T19:06:26.927Z,100975.84
2022-10-25T19:08:54.314Z,100980.56
2022-10-25T19:11:23.586Z,100987.88
2022-10-25T19:13:56.524Z,100992.56
2022-10-25T19:16:25.402Z,100990.88
2022-10-25T19:18:56.218Z,100993.88
2022-10-25T19:21:23.294Z,100995.56
2022-10-25T19:23:51.482Z,100991.00
2022-10-25T19:26:20.530Z,100992.50
2022-10-25T19:28:58.831Z,100991.50
2022-10-25T19:31:28.488Z,100991.34
2022-10-25T19:33:58.418Z,100992.00
2022-10-25T19:36:26.441Z,100989.84
2022-10-25T19:38:53.668Z,100985.19
2022-10-25T19:41:23.099Z,100989.13
2022-10-25T19:43:52.987Z,100987.75
2022-10-25T19:46:21.068Z,100998.75
2022-10-25T19:48:51.870Z,100991.00
2022-10-25T19:51:20.221Z,100992.63
2022-10-25T19:53:46.926Z,100992.13
2022-10-25T19:56:15.510Z,100992.78
2022-10-25T19:58:42.244Z,100984.19
2022-10-25T20:01:21.326Z,100988.31
2022-10-25T20:03:50.211Z,100996.00
2022-10-25T20:06:23.350Z,100988.81
2022-10-25T20:08:52.562Z,100988.94
2022-10-25T20:11:19.886Z,100995.94
2022-10-25T20:13:46.774Z,100999.22
2022-10-25T20:16:14.146Z,100995.34
2022-10-25T20:18:42.414Z,101002.03
2022-10-25T20:21:11.924Z,100989.59
2022-10-25T20:23:39.938Z,100997.75
2022-10-25T20:26:14.878Z,100997.22
2022-10-25T20:28:42.562Z,100998.59
2022-10-25T20:31:09.669Z,100999.00
2022-10-25T20:33:36.457Z,101004.25
2022-10-25T20:36:05.435Z,101001.53
2022-10-25T20:38:32.178Z,101002.50
2022-10-25T20:41:10.333Z,101000.94
2022-10-25T20:43:38.061Z,101006.94
2022-10-25T20:46:05.581Z,100993.31
2022-10-25T20:48:32.826Z,100995.53
2022-10-25T20:51:04.098Z,101006.03
2022-10-25T20:53:34.190Z,101007.47
2022-10-25T20:56:00.853Z,101008.78
2022-10-25T20:58:27.988Z,101009.44
2022-10-25T21:00:57.366Z,101009.22
2022-10-25T21:03:25.591Z,101009.53
2022-10-25T21:05:53.643Z,101002.22
2022-10-25T21:08:22.874Z,101002.16
2022-10-25T21:10:58.218Z,100999.94
2022-10-25T21:13:26.602Z,100996.44
2022-10-25T21:15:53.796Z,101001.59
2022-10-25T21:18:21.204Z,101003.13
2022-10-25T21:20:48.827Z,101004.13
2022-10-25T21:23:15.522Z,100994.59
2022-10-25T21:25:42.159Z,100995.63
2022-10-25T21:28:09.233Z,100996.53
2022-10-25T21:30:35.898Z,101008.00
2022-10-25T21:33:03.973Z,101009.00
2022-10-25T21:35:32.281Z,101003.81
2022-10-25T21:37:59.175Z,101006.84
2022-10-25T21:40:25.920Z,100999.22
2022-10-25T21:42:52.597Z,101004.25
2022-10-25T21:45:19.244Z,101003.88
2022-10-25T21:47:46.160Z,101001.66
2022-10-25T21:50:13.122Z,100997.25
2022-10-25T21:52:39.735Z,101006.72
2022-10-25T21:55:06.949Z,100995.72
2022-10-25T21:57:33.572Z,101002.09
2022-10-25T22:00:00.244Z,101003.84
2022-10-25T22:02:27.099Z,101009.00
2022-10-25T22:04:53.812Z,100996.53
2022-10-25T22:07:20.383Z,101002.09
2022-10-25T22:09:47.010Z,100995.56
2022-10-25T22:12:13.655Z,101001.84
2022-10-25T22:14:40.252Z,101001.41
2022-10-25T22:17:08.978Z,101004.06
2022-10-25T22:19:35.628Z,101009.88
2022-10-25T22:22:02.424Z,101004.75
2022-10-25T22:24:29.183Z,101002.41
2022-10-25T22:26:55.826Z,101008.84
2022-10-25T22:29:22.461Z,101005.47
2022-10-25T22:31:49.141Z,101004.22
2022-10-25T22:34:15.785Z,101003.84
2022-10-25T22:36:42.626Z,101006.34
2022-10-25T22:39:10.040Z,101008.44
2022-10-25T22:41:36.796Z,101015.75
2022-10-25T22:44:03.893Z,101013.94
2022-10-25T22:46:35.298Z,101000.25
2022-10-25T22:49:09.057Z,101000.97
2022-10-25T22:51:37.033Z,100999.22
2022-10-25T22:54:04.111Z,100999.22
2022-10-25T22:56:31.960Z,101006.47
2022-10-25T22:59:01.701Z,101002.97
2022-10-25T23:01:34.831Z,101001.44
2022-10-25T23:04:04.292Z,101006.03
2022-10-25T23:06:36.500Z,101002.25
2022-10-25T23:09:06.829Z,101007.31
2022-10-25T23:11:35.516Z,100999.78
2022-10-25T23:14:02.588Z,100997.66
2022-10-25T23:16:29.977Z,100995.91
2022-10-25T23:18:56.660Z,100990.97
2022-10-25T23:21:25.835Z,100987.34
2022-10-25T23:23:53.438Z,100989.47
2022-10-25T23:26:21.734Z,100989.19
2022-10-25T23:28:48.902Z,100998.00
2022-10-25T23:31:16.122Z,101001.06
2022-10-25T23:33:43.537Z,101007.34
2022-10-25T23:36:19.483Z,100998.94
2022-10-25T23:38:48.161Z,100989.47
2022-10-25T23:41:15.649Z,100991.41
2022-10-25T23:43:42.495Z,101000.22
2022-10-25T23:46:09.932Z,100999.09
2022-10-25T23:48:36.980Z,101000.34
2022-10-25T23:51:06.260Z,101000.09
2022-10-25T23:53:33.830Z,101003.41
2022-10-25T23:56:01.328Z,101000.28
2022-10-25T23:58:28.470Z,101000.56
